createdAt,value
2018-04-12T00:00:34.919Z,14.13
2018-04-12T00:01:34.923Z,14.18
2018-04-12T00:02:34.920Z,14.07
2018-04-12T00:03:34.921Z,14.12
2018-04-12T00:04:34.921Z,14.15
2018-04-12T00:05:34.925Z,14.18
2018-04-12T00:06:34.925Z,14.23
2018-04-12T00:07:34.922Z,14.20
2018-04-12T00:08:34.921Z,14.23
2018-04-12T00:09:34.923Z,14.22
2018-04-12T00:10:34.924Z,14.20
2018-04-12T00:11:34.925Z,14.33
2018-04-12T00:12:34.925Z,14.34
2018-04-12T00:13:34.924Z,14.37
2018-04-12T00:14:34.926Z,14.45
2018-04-12T00:15:34.926Z,14.41
2018-04-12T00:16:34.925Z,14.44
2018-04-12T00:17:34.925Z,14.36
2018-04-12T00:18:34.925Z,14.33
2018-04-12T00:19:34.928Z,14.36
2018-04-12T00:20:34.944Z,14.48
2018-04-12T00:21:34.927Z,14.56
2018-04-12T00:22:34.932Z,14.55
2018-04-12T00:23:34.930Z,14.56
2018-04-12T00:24:34.931Z,14.58
2018-04-12T00:25:34.930Z,14.70
2018-04-12T00:26:34.930Z,14.67
2018-04-12T00:27:34.933Z,14.71
2018-04-12T00:28:34.929Z,14.59
2018-04-12T00:29:34.930Z,14.56
2018-04-12T00:30:34.931Z,14.58
2018-04-12T00:31:34.931Z,14.43
2018-04-12T00:32:34.931Z,14.34
2018-04-12T00:33:34.930Z,14.36
2018-04-12T00:34:34.933Z,14.40
2018-04-12T00:35:34.933Z,14.37
2018-04-12T00:36:34.932Z,14.33
2018-04-12T00:37:34.932Z,14.25
2018-04-12T00:38:34.933Z,14.33
2018-04-12T00:39:34.937Z,14.37
2018-04-12T00:40:34.933Z,14.37
2018-04-12T00:41:34.933Z,14.33
2018-04-12T00:42:34.936Z,14.38
2018-04-12T00:43:34.935Z,14.33
2018-04-12T00:44:34.935Z,14.28
2018-04-12T00:45:34.937Z,14.38
2018-04-12T00:46:34.936Z,14.23
2018-04-12T00:47:34.936Z,14.11
2018-04-12T00:48:34.938Z,14.07
2018-04-12T00:49:34.937Z,14.05
2018-04-12T00:50:34.937Z,14.04
2018-04-12T00:51:34.938Z,14.01
2018-04-12T00:52:34.937Z,13.97
2018-04-12T00:53:34.937Z,13.85
2018-04-12T00:54:34.936Z,13.80
2018-04-12T00:55:34.943Z,14.04
2018-04-12T00:56:34.938Z,14.25
2018-04-12T00:57:34.938Z,14.31
2018-04-12T00:58:34.940Z,14.40
2018-04-12T00:59:34.940Z,14.30
2018-04-12T01:00:34.939Z,14.25
2018-04-12T01:01:34.939Z,14.38
2018-04-12T01:02:34.942Z,14.30
2018-04-12T01:03:34.943Z,14.30
2018-04-12T01:04:34.942Z,14.33
2018-04-12T01:05:34.941Z,14.28
2018-04-12T01:06:34.941Z,14.28
2018-04-12T01:07:34.944Z,14.22
2018-04-12T01:08:34.942Z,14.04
2018-04-12T01:09:34.943Z,14.00
2018-04-12T01:10:34.943Z,14.11
2018-04-12T01:11:34.943Z,13.93
2018-04-12T01:12:34.945Z,13.94
2018-04-12T01:13:34.944Z,13.93
2018-04-12T01:14:34.944Z,13.95
2018-04-12T01:15:34.945Z,13.87
2018-04-12T01:16:34.944Z,13.80
2018-04-12T01:17:34.946Z,13.82
2018-04-12T01:18:34.945Z,14.01
2018-04-12T01:19:34.945Z,14.04
2018-04-12T01:20:34.945Z,14.12
2018-04-12T01:21:34.946Z,14.15
2018-04-12T01:22:34.945Z,14.18
2018-04-12T01:23:34.946Z,14.34
2018-04-12T01:24:34.946Z,14.36
2018-04-12T01:25:34.950Z,14.40
2018-04-12T01:26:34.946Z,14.31
2018-04-12T01:27:34.949Z,14.31
2018-04-12T01:28:34.948Z,14.36
2018-04-12T01:29:34.947Z,14.38
2018-04-12T01:30:34.947Z,14.40
2018-04-12T01:31:34.948Z,14.33
2018-04-12T01:32:34.947Z,14.19
2018-04-12T01:33:34.949Z,14.12
2018-04-12T01:34:34.948Z,14.13
2018-04-12T01:35:34.948Z,14.13
2018-04-12T01:36:34.948Z,14.12
2018-04-12T01:37:34.948Z,14.04
2018-04-12T01:38:34.950Z,14.08
2018-04-12T01:39:34.949Z,14.03
2018-04-12T01:40:34.950Z,14.04
2018-04-12T01:41:34.950Z,14.07
2018-04-12T01:42:34.949Z,14.08
2018-04-12T01:43:34.951Z,14.07
2018-04-12T01:44:34.950Z,13.98
2018-04-12T01:45:34.950Z,14.00
2018-04-12T01:46:34.952Z,13.87
2018-04-12T01:47:34.951Z,13.85
2018-04-12T01:48:34.951Z,13.86
2018-04-12T01:49:34.952Z,13.87
2018-04-12T01:50:34.950Z,13.82
2018-04-12T01:51:34.951Z,13.89
2018-04-12T01:52:34.951Z,13.82
2018-04-12T01:53:34.952Z,13.80
2018-04-12T01:54:34.950Z,13.67
2018-04-12T01:55:34.952Z,13.57
2018-04-12T01:56:34.950Z,13.33
2018-04-12T01:57:34.952Z,13.40
2018-04-12T01:58:34.953Z,13.19
2018-04-12T01:59:34.953Z,13.02
2018-04-12T02:00:34.951Z,12.90
2018-04-12T02:01:34.953Z,12.65
2018-04-12T02:02:34.958Z,12.37
2018-04-12T02:03:34.953Z,12.33
2018-04-12T02:04:34.952Z,12.03
2018-04-12T02:05:34.953Z,11.88
2018-04-12T02:06:34.976Z,11.77
2018-04-12T02:07:34.954Z,12.03
2018-04-12T02:08:34.952Z,12.33
2018-04-12T02:09:34.951Z,12.78
2018-04-12T02:10:34.952Z,12.65
2018-04-12T02:11:34.952Z,12.45
2018-04-12T02:12:34.951Z,12.39
2018-04-12T02:13:34.951Z,12.33
2018-04-12T02:14:34.951Z,12.29
2018-04-12T02:15:34.951Z,12.21
2018-04-12T02:16:34.950Z,12.07
2018-04-12T02:17:34.951Z,12.07
2018-04-12T02:18:34.949Z,12.15
2018-04-12T02:19:34.952Z,12.18
2018-04-12T02:20:34.949Z,12.20
2018-04-12T02:21:34.947Z,12.05
2018-04-12T02:22:34.947Z,12.07
2018-04-12T02:23:34.948Z,12.17
2018-04-12T02:24:34.946Z,12.18
2018-04-12T02:25:34.946Z,12.18
2018-04-12T02:26:34.945Z,12.28
2018-04-12T02:27:34.945Z,12.17
2018-04-12T02:28:34.943Z,12.17
2018-04-12T02:29:34.944Z,12.10
2018-04-12T02:30:34.946Z,12.07
2018-04-12T02:31:34.942Z,12.17
2018-04-12T02:32:34.940Z,12.21
2018-04-12T02:33:34.939Z,12.36
2018-04-12T02:34:34.940Z,13.06
2018-04-12T02:35:34.941Z,13.26
2018-04-12T02:36:34.938Z,13.40
2018-04-12T02:37:34.939Z,13.40
2018-04-12T02:38:34.939Z,13.42
2018-04-12T02:39:34.937Z,13.79
2018-04-12T02:40:34.936Z,14.07
2018-04-12T02:41:34.938Z,14.34
2018-04-12T02:42:34.949Z,14.51
2018-04-12T02:43:34.935Z,14.78
2018-04-12T02:44:34.935Z,14.86
2018-04-12T02:45:34.933Z,14.94
2018-04-12T02:46:34.933Z,14.97
2018-04-12T02:47:34.935Z,15.11
2018-04-12T02:48:34.933Z,14.90
2018-04-12T02:49:34.932Z,14.68
2018-04-12T02:50:34.940Z,14.52
2018-04-12T02:51:34.933Z,14.55
2018-04-12T02:52:34.932Z,14.61
2018-04-12T02:53:34.932Z,14.78
2018-04-12T02:54:34.934Z,14.93
2018-04-12T02:55:34.937Z,15.00
2018-04-12T02:56:34.931Z,15.07
2018-04-12T02:57:34.934Z,15.14
2018-04-12T02:58:34.931Z,15.17
2018-04-12T02:59:34.931Z,15.15
2018-04-12T03:00:34.931Z,15.26
2018-04-12T03:01:34.932Z,15.18
2018-04-12T03:02:34.931Z,15.19
2018-04-12T03:03:34.935Z,15.19
2018-04-12T03:04:34.930Z,15.17
2018-04-12T03:05:34.932Z,15.15
2018-04-12T03:06:34.933Z,15.15
2018-04-12T03:07:34.932Z,15.14
2018-04-12T03:08:34.932Z,14.99
2018-04-12T03:09:34.931Z,14.89
2018-04-12T03:10:34.931Z,14.71
2018-04-12T03:11:34.933Z,14.49
2018-04-12T03:12:34.931Z,14.30
2018-04-12T03:13:34.933Z,14.00
2018-04-12T03:14:34.932Z,13.87
2018-04-12T03:15:34.934Z,13.80
2018-04-12T03:16:34.933Z,13.71
2018-04-12T03:17:34.934Z,13.68
2018-04-12T03:18:34.933Z,13.68
2018-04-12T03:19:34.934Z,13.76
2018-04-12T03:20:34.932Z,13.71
2018-04-12T03:21:34.933Z,13.65
2018-04-12T03:22:34.935Z,13.85
2018-04-12T03:23:34.934Z,13.76
2018-04-12T03:24:34.934Z,13.80
2018-04-12T03:25:34.933Z,13.80
2018-04-12T03:26:34.933Z,13.83
2018-04-12T03:27:34.934Z,13.80
2018-04-12T03:28:34.934Z,13.82
2018-04-12T03:29:34.933Z,14.43
2018-04-12T03:30:34.935Z,14.70
2018-04-12T03:31:34.935Z,14.90
2018-04-12T03:32:34.933Z,14.93
2018-04-12T03:33:34.934Z,14.87
2018-04-12T03:34:34.937Z,14.86
2018-04-12T03:35:34.933Z,14.77
2018-04-12T03:36:34.934Z,14.73
2018-04-12T03:37:34.934Z,14.59
2018-04-12T03:38:34.935Z,14.56
2018-04-12T03:39:34.935Z,14.41
2018-04-12T03:40:34.933Z,14.31
2018-04-12T03:41:34.933Z,14.20
2018-04-12T03:42:34.933Z,14.04
2018-04-12T03:43:34.934Z,13.98
2018-04-12T03:44:34.936Z,14.08
2018-04-12T03:45:34.933Z,14.23
2018-04-12T03:46:34.934Z,14.40
2018-04-12T03:47:34.935Z,14.45
2018-04-12T03:48:34.977Z,14.56
2018-04-12T03:49:34.987Z,14.55
2018-04-12T03:50:34.955Z,14.66
2018-04-12T03:51:34.936Z,14.61
2018-04-12T03:52:34.934Z,14.56
2018-04-12T03:53:34.934Z,14.52
2018-04-12T03:54:34.934Z,14.45
2018-04-12T03:55:34.936Z,14.49
2018-04-12T03:56:34.935Z,14.37
2018-04-12T03:57:34.935Z,14.28
2018-04-12T03:58:34.935Z,14.38
2018-04-12T03:59:34.935Z,14.19
2018-04-12T04:00:34.935Z,14.04
2018-04-12T04:01:34.935Z,13.98
2018-04-12T04:02:34.939Z,13.86
2018-04-12T04:03:34.937Z,13.85
2018-04-12T04:04:34.935Z,13.75
2018-04-12T04:05:34.937Z,13.71
2018-04-12T04:06:34.938Z,13.49
2018-04-12T04:07:34.939Z,13.45
2018-04-12T04:08:34.936Z,13.36
2018-04-12T04:09:34.936Z,13.33
2018-04-12T04:10:34.936Z,13.24
2018-04-12T04:11:34.936Z,13.23
2018-04-12T04:12:34.935Z,13.20
2018-04-12T04:13:34.936Z,13.11
2018-04-12T04:14:34.935Z,13.11
2018-04-12T04:15:34.936Z,13.05
2018-04-12T04:16:34.935Z,12.95
2018-04-12T04:17:34.936Z,12.87
2018-04-12T04:18:34.935Z,12.81
2018-04-12T04:19:34.935Z,12.65
2018-04-12T04:20:34.935Z,12.55
2018-04-12T04:21:34.934Z,12.36
2018-04-12T04:22:34.936Z,12.37
2018-04-12T04:23:34.935Z,12.35
2018-04-12T04:24:34.935Z,12.32
2018-04-12T04:25:34.933Z,12.23
2018-04-12T04:26:34.933Z,12.32
2018-04-12T04:27:34.933Z,12.69
2018-04-12T04:28:34.934Z,12.86
2018-04-12T04:29:34.933Z,13.01
2018-04-12T04:30:34.938Z,13.20
2018-04-12T04:31:34.933Z,13.13
2018-04-12T04:32:34.931Z,13.16
2018-04-12T04:33:34.930Z,13.06
2018-04-12T04:34:34.934Z,13.03
2018-04-12T04:35:34.931Z,13.01
2018-04-12T04:36:34.929Z,13.02
2018-04-12T04:37:34.930Z,13.11
2018-04-12T04:38:34.932Z,13.08
2018-04-12T04:39:34.928Z,13.19
2018-04-12T04:40:34.928Z,13.16
2018-04-12T04:41:34.932Z,13.21
2018-04-12T04:42:34.927Z,13.16
2018-04-12T04:43:34.927Z,13.23
2018-04-12T04:44:34.925Z,13.37
2018-04-12T04:45:34.925Z,13.31
2018-04-12T04:46:34.925Z,13.46
2018-04-12T04:47:34.925Z,13.52
2018-04-12T04:48:34.924Z,13.57
2018-04-12T04:49:34.923Z,13.52
2018-04-12T04:50:34.923Z,13.62
2018-04-12T04:51:34.923Z,13.65
2018-04-12T04:52:34.930Z,13.70
2018-04-12T04:53:34.921Z,13.76
2018-04-12T04:54:34.921Z,13.86
2018-04-12T04:55:34.926Z,14.07
2018-04-12T04:56:34.921Z,14.12
2018-04-12T04:57:34.920Z,14.16
2018-04-12T04:58:34.922Z,14.41
2018-04-12T04:59:34.920Z,14.85
2018-04-12T05:00:34.921Z,15.05
2018-04-12T05:01:34.921Z,15.17
2018-04-12T05:02:34.920Z,15.18
2018-04-12T05:03:34.926Z,15.17
2018-04-12T05:04:34.920Z,15.18
2018-04-12T05:05:34.920Z,15.19
2018-04-12T05:06:34.929Z,15.22
2018-04-12T05:07:34.931Z,15.15
2018-04-12T05:08:34.919Z,14.92
2018-04-12T05:09:34.922Z,14.59
2018-04-12T05:10:34.920Z,14.58
2018-04-12T05:11:34.930Z,14.49
2018-04-12T05:12:34.921Z,14.44
2018-04-12T05:13:34.921Z,14.40
2018-04-12T05:14:34.922Z,14.36
2018-04-12T05:15:34.997Z,14.36
2018-04-12T05:16:34.922Z,14.33
2018-04-12T05:17:34.921Z,14.26
2018-04-12T05:18:34.921Z,14.43
2018-04-12T05:19:34.921Z,14.71
2018-04-12T05:20:34.920Z,14.90
2018-04-12T05:21:34.921Z,15.02
2018-04-12T05:22:34.923Z,15.07
2018-04-12T05:23:34.922Z,15.14
2018-04-12T05:24:34.922Z,15.22
2018-04-12T05:25:34.921Z,15.18
2018-04-12T05:26:34.925Z,15.25
2018-04-12T05:27:34.923Z,15.22
2018-04-12T05:28:34.923Z,15.27
2018-04-12T05:29:34.922Z,15.12
2018-04-12T05:30:34.923Z,15.23
2018-04-12T05:31:34.925Z,15.43
2018-04-12T05:32:34.924Z,15.54
2018-04-12T05:33:34.925Z,15.52
2018-04-12T05:34:34.925Z,15.62
2018-04-12T05:38:04.120Z,15.65
2018-04-12T05:39:04.122Z,15.65
2018-04-12T05:40:04.122Z,15.67
2018-04-12T05:41:04.124Z,15.83
2018-04-12T05:42:04.123Z,15.75
2018-04-12T05:43:04.125Z,15.83
2018-04-12T05:44:04.133Z,15.91
2018-04-12T05:45:04.126Z,16.09
2018-04-12T05:46:04.126Z,16.24
2018-04-12T05:47:04.126Z,16.37
2018-04-12T05:48:04.129Z,16.40
2018-04-12T05:49:04.129Z,16.39
2018-04-12T05:50:04.130Z,16.43
2018-04-12T05:51:04.135Z,16.41
2018-04-12T05:52:04.132Z,16.46
2018-04-12T05:53:04.134Z,16.46
2018-04-12T05:54:04.133Z,16.43
2018-04-12T05:55:04.135Z,16.43
2018-04-12T05:56:04.135Z,16.47
2018-04-12T05:57:04.137Z,16.49
2018-04-12T05:58:04.192Z,16.46
2018-04-12T05:59:04.139Z,16.44
2018-04-12T06:00:04.209Z,16.61
2018-04-12T06:01:04.186Z,16.54
2018-04-12T06:02:04.147Z,16.58
2018-04-12T06:03:04.225Z,16.58
2018-04-12T06:04:04.195Z,16.65
2018-04-12T06:05:04.175Z,16.55
2018-04-12T06:06:04.171Z,16.51
2018-04-12T06:07:04.194Z,16.59
2018-04-12T06:08:04.155Z,16.59
2018-04-12T06:09:04.284Z,16.68
2018-04-12T06:10:04.156Z,16.61
2018-04-12T06:11:04.157Z,16.55
2018-04-12T06:12:04.163Z,16.44
2018-04-12T06:13:04.169Z,16.41
2018-04-12T06:14:04.303Z,16.49
2018-04-12T06:15:04.165Z,16.57
2018-04-12T06:16:04.166Z,16.59
2018-04-12T06:17:04.172Z,16.59
2018-04-12T06:18:04.172Z,16.73
2018-04-12T06:19:04.171Z,16.64
2018-04-12T06:20:04.174Z,16.77
2018-04-12T06:21:04.176Z,16.74
2018-04-12T06:22:04.178Z,16.80
2018-04-12T06:23:04.179Z,16.94
2018-04-12T06:24:04.182Z,17.01
2018-04-12T06:25:04.433Z,16.99
2018-04-12T06:26:04.186Z,17.04
2018-04-12T06:27:04.188Z,17.22
2018-04-12T06:28:04.192Z,17.27
2018-04-12T06:29:04.301Z,17.32
2018-04-12T06:30:04.364Z,17.42
2018-04-12T06:31:04.197Z,17.56
2018-04-12T06:32:04.199Z,17.69
2018-04-12T06:33:04.203Z,17.93
2018-04-12T06:34:04.205Z,18.16
2018-04-12T06:35:04.210Z,18.96
2018-04-12T06:36:04.214Z,19.99
2018-04-12T06:37:04.218Z,20.96
2018-04-12T06:38:04.224Z,21.69
2018-04-12T06:39:04.231Z,22.37
2018-04-12T06:40:04.239Z,22.61
2018-04-12T06:41:04.250Z,22.65
2018-04-12T06:42:04.253Z,22.59
2018-04-12T06:43:04.261Z,22.62
2018-04-12T06:44:04.314Z,22.41
2018-04-12T06:45:04.281Z,22.51
2018-04-12T06:46:04.291Z,22.25
2018-04-12T06:47:04.305Z,22.06
2018-04-12T06:48:04.312Z,22.37
2018-04-12T06:49:04.322Z,23.08
2018-04-12T06:50:04.335Z,22.33
2018-04-12T06:51:04.344Z,22.06
2018-04-12T06:52:04.354Z,21.78
2018-04-12T06:53:04.364Z,21.85
2018-04-12T06:54:04.412Z,21.51
2018-04-12T06:55:04.383Z,20.92
2018-04-12T06:56:04.396Z,20.58
2018-04-12T06:57:04.401Z,20.10
2018-04-12T06:58:04.410Z,19.82
2018-04-12T06:59:04.420Z,19.38
2018-04-12T07:00:04.472Z,19.23
2018-04-12T07:01:04.436Z,19.41
2018-04-12T07:02:04.442Z,19.75
2018-04-12T07:03:04.450Z,19.74
2018-04-12T07:04:04.457Z,19.49
2018-04-12T07:05:04.469Z,19.85
2018-04-12T07:06:04.475Z,19.64
2018-04-12T07:07:04.477Z,19.37
2018-04-12T07:08:04.485Z,19.07
2018-04-12T07:09:04.494Z,18.74
2018-04-12T07:10:04.498Z,18.92
2018-04-12T07:11:04.505Z,19.00
2018-04-12T07:12:04.516Z,19.01
2018-04-12T07:13:04.588Z,19.75
2018-04-12T07:14:04.523Z,20.64
2018-04-12T07:15:04.529Z,21.11
2018-04-12T07:16:04.537Z,21.37
2018-04-12T07:17:04.548Z,21.72
2018-04-12T07:18:04.551Z,21.89
2018-04-12T07:19:04.557Z,21.75
2018-04-12T07:20:04.565Z,21.05
2018-04-12T07:21:04.572Z,20.56
2018-04-12T07:22:04.580Z,19.99
2018-04-12T07:23:04.586Z,19.66
2018-04-12T07:24:04.593Z,19.48
2018-04-12T07:25:04.600Z,19.52
2018-04-12T07:26:04.616Z,19.52
2018-04-12T07:27:04.612Z,19.64
2018-04-12T07:28:04.618Z,19.75
2018-04-12T07:29:04.625Z,19.79
2018-04-12T07:30:04.630Z,19.96
2018-04-12T07:31:04.635Z,20.07
2018-04-12T07:32:04.643Z,20.26
2018-04-12T07:33:04.650Z,20.14
2018-04-12T07:34:04.656Z,20.42
2018-04-12T07:35:04.663Z,20.53
2018-04-12T07:36:04.668Z,20.37
2018-04-12T07:37:04.680Z,20.83
2018-04-12T07:38:04.899Z,21.32
2018-04-12T07:39:04.687Z,21.66
2018-04-12T07:40:04.695Z,22.14
2018-04-12T07:41:04.702Z,22.55
2018-04-12T07:42:04.710Z,22.83
2018-04-12T07:43:04.719Z,23.06
2018-04-12T07:44:04.726Z,22.86
2018-04-12T07:45:04.735Z,22.99
2018-04-12T07:46:04.741Z,23.01
2018-04-12T07:47:04.761Z,22.98
2018-04-12T07:48:04.760Z,23.45
2018-04-12T07:49:04.773Z,24.06
2018-04-12T07:50:04.779Z,24.34
2018-04-12T07:51:04.791Z,24.53
2018-04-12T07:52:04.797Z,23.48
2018-04-12T07:53:04.807Z,23.13
2018-04-12T07:54:04.815Z,22.92
2018-04-12T07:55:04.830Z,23.13
2018-04-12T07:56:04.837Z,23.63
2018-04-12T07:57:04.849Z,23.96
2018-04-12T07:58:04.857Z,24.44
2018-04-12T07:59:04.868Z,24.48
2018-04-12T08:00:04.879Z,24.85
2018-04-12T08:01:04.890Z,25.18
2018-04-12T08:02:04.921Z,25.03
2018-04-12T08:03:04.919Z,25.18
2018-04-12T08:04:04.927Z,25.74
2018-04-12T08:05:04.995Z,25.46
2018-04-12T08:06:04.952Z,25.14
2018-04-12T08:07:04.966Z,25.36
2018-04-12T08:08:05.044Z,25.48
2018-04-12T08:09:04.996Z,25.11
2018-04-12T08:10:05.011Z,24.26
2018-04-12T08:11:05.021Z,24.07
2018-04-12T08:12:05.033Z,24.32
2018-04-12T08:13:05.047Z,23.74
2018-04-12T08:14:05.059Z,24.06
2018-04-12T08:15:05.078Z,24.28
2018-04-12T08:16:05.087Z,24.36
2018-04-12T08:17:05.102Z,24.00
2018-04-12T08:18:05.113Z,23.66
2018-04-12T08:19:05.126Z,23.21
2018-04-12T08:20:05.141Z,22.96
2018-04-12T08:21:05.151Z,22.93
2018-04-12T08:22:05.451Z,23.08
2018-04-12T08:23:05.179Z,23.39
2018-04-12T08:24:05.189Z,23.49
2018-04-12T08:25:05.205Z,23.28
2018-04-12T08:26:05.211Z,23.62
2018-04-12T08:27:05.223Z,23.56
2018-04-12T08:28:05.237Z,23.49
2018-04-12T08:29:05.249Z,23.66
2018-04-12T08:30:05.458Z,24.04
2018-04-12T08:31:05.269Z,23.44
2018-04-12T08:32:05.280Z,23.08
2018-04-12T08:33:05.296Z,22.92
2018-04-12T08:34:05.312Z,22.76
2018-04-12T08:35:05.315Z,22.38
2018-04-12T08:36:05.325Z,22.33
2018-04-12T08:37:05.336Z,22.55
2018-04-12T08:38:05.570Z,22.51
2018-04-12T08:39:05.359Z,22.83
2018-04-12T08:40:05.652Z,22.96
2018-04-12T08:41:05.381Z,23.16
2018-04-12T08:42:05.393Z,22.93
2018-04-12T08:43:05.421Z,22.80
2018-04-12T08:44:05.414Z,22.83
2018-04-12T08:45:05.501Z,22.58
2018-04-12T08:46:05.436Z,22.51
2018-04-12T08:47:05.447Z,22.47
2018-04-12T08:48:05.460Z,21.97
2018-04-12T08:49:05.467Z,21.77
2018-04-12T08:50:05.478Z,21.75
2018-04-12T08:51:05.488Z,22.19
2018-04-12T08:52:05.496Z,22.47
2018-04-12T08:53:05.507Z,23.01
2018-04-12T08:54:05.517Z,23.25
2018-04-12T08:55:05.528Z,23.11
2018-04-12T08:56:05.537Z,23.10
2018-04-12T08:57:06.022Z,22.63
2018-04-12T08:58:05.864Z,22.53
2018-04-12T08:59:05.737Z,22.43
2018-04-12T09:00:05.576Z,22.43
2018-04-12T09:01:05.597Z,22.63
2018-04-12T09:02:05.594Z,22.67
2018-04-12T09:03:05.602Z,23.10
2018-04-12T09:04:05.612Z,23.10
2018-04-12T09:05:05.689Z,22.53
2018-04-12T09:06:05.631Z,22.06
2018-04-12T09:07:05.640Z,21.69
2018-04-12T09:08:05.650Z,21.29
2018-04-12T09:09:05.660Z,20.96
2018-04-12T09:10:05.672Z,20.95
2018-04-12T09:11:05.677Z,21.04
2018-04-12T09:12:05.687Z,21.08
2018-04-12T09:13:05.695Z,21.25
2018-04-12T09:14:05.741Z,21.41
2018-04-12T09:15:05.713Z,21.88
2018-04-12T09:16:05.722Z,22.61
2018-04-12T09:17:05.732Z,23.58
2018-04-12T09:18:05.740Z,24.44
2018-04-12T09:19:05.751Z,25.12
2018-04-12T09:20:05.763Z,25.18
2018-04-12T09:21:05.792Z,25.74
2018-04-12T09:22:05.822Z,26.08
2018-04-12T09:23:05.797Z,25.88
2018-04-12T09:24:05.810Z,25.24
2018-04-12T09:25:05.824Z,25.41
2018-04-12T09:26:05.833Z,25.31
2018-04-12T09:27:05.848Z,24.48
2018-04-12T09:28:05.865Z,24.25
2018-04-12T09:29:05.875Z,22.89
2018-04-12T09:30:05.888Z,22.92
2018-04-12T09:31:05.905Z,23.23
2018-04-12T09:32:05.915Z,23.10
2018-04-12T09:33:05.931Z,22.92
2018-04-12T09:34:05.943Z,22.63
2018-04-12T09:35:05.961Z,22.89
2018-04-12T09:36:06.130Z,23.44
2018-04-12T09:37:05.984Z,24.22
2018-04-12T09:38:05.994Z,24.53
2018-04-12T09:39:06.005Z,24.78
2018-04-12T09:40:06.020Z,25.04
2018-04-12T09:41:06.058Z,25.46
2018-04-12T09:42:06.048Z,25.76
2018-04-12T09:43:06.059Z,25.77
2018-04-12T09:44:06.110Z,25.44
2018-04-12T09:45:06.085Z,24.96
2018-04-12T09:46:06.097Z,25.24
2018-04-12T09:47:06.113Z,25.18
2018-04-12T09:48:06.126Z,24.63
2018-04-12T09:49:06.191Z,24.69
2018-04-12T09:50:06.150Z,24.74
2018-04-12T09:51:06.162Z,25.00
2018-04-12T09:52:06.176Z,25.15
2018-04-12T09:53:06.189Z,25.51
2018-04-12T09:54:06.202Z,25.74
2018-04-12T09:55:06.216Z,26.11
2018-04-12T09:56:06.230Z,26.42
2018-04-12T09:57:06.246Z,26.49
2018-04-12T09:58:06.257Z,26.71
2018-04-12T09:59:06.403Z,26.71
2018-04-12T10:00:06.302Z,26.70
2018-04-12T10:01:06.302Z,26.44
2018-04-12T10:02:06.316Z,26.29
2018-04-12T10:03:06.329Z,26.64
2018-04-12T10:04:06.344Z,26.64
2018-04-12T10:05:06.358Z,25.96
2018-04-12T10:06:06.376Z,25.37
2018-04-12T10:07:06.387Z,25.49
2018-04-12T10:08:06.401Z,25.68
2018-04-12T10:09:06.415Z,25.85
2018-04-12T10:10:06.429Z,25.00
2018-04-12T10:11:06.443Z,25.07
2018-04-12T10:12:06.457Z,25.16
2018-04-12T10:13:06.471Z,24.56
2018-04-12T10:14:06.483Z,24.31
2018-04-12T10:15:06.498Z,24.19
2018-04-12T10:16:06.510Z,24.68
2018-04-12T10:17:06.524Z,24.96
2018-04-12T10:18:06.536Z,25.41
2018-04-12T10:19:06.550Z,25.40
2018-04-12T10:20:06.563Z,25.31
2018-04-12T10:21:06.576Z,25.66
2018-04-12T10:22:06.588Z,26.04
2018-04-12T10:23:06.604Z,26.34
2018-04-12T10:24:06.615Z,26.26
2018-04-12T10:25:06.630Z,25.58
2018-04-12T10:26:06.642Z,25.63
2018-04-12T10:27:06.654Z,25.44
2018-04-12T10:28:06.667Z,25.16
2018-04-12T10:29:06.681Z,25.36
2018-04-12T10:30:06.692Z,25.51
2018-04-12T10:31:06.707Z,25.80
2018-04-12T10:32:06.719Z,26.10
2018-04-12T10:33:06.734Z,26.56
2018-04-12T10:34:06.745Z,27.03
2018-04-12T10:35:06.762Z,26.82
2018-04-12T10:36:06.773Z,26.82
2018-04-12T10:37:06.853Z,26.42
2018-04-12T10:38:06.800Z,26.71
2018-04-12T10:39:06.814Z,26.83
2018-04-12T10:40:06.830Z,26.44
2018-04-12T10:41:06.843Z,26.59
2018-04-12T10:42:06.856Z,26.79
2018-04-12T10:43:06.869Z,26.96
2018-04-12T10:44:06.884Z,27.07
2018-04-12T10:45:06.901Z,26.98
2018-04-12T10:46:06.915Z,26.66
2018-04-12T10:47:06.925Z,26.64
2018-04-12T10:48:06.940Z,26.63
2018-04-12T10:49:06.955Z,26.31
2018-04-12T10:50:07.007Z,26.23
2018-04-12T10:51:06.984Z,26.15
2018-04-12T10:52:06.995Z,26.10
2018-04-12T10:53:07.009Z,25.92
2018-04-12T10:54:07.022Z,26.08
2018-04-12T10:55:07.034Z,26.11
2018-04-12T10:56:07.052Z,25.95
2018-04-12T10:57:07.062Z,25.70
2018-04-12T10:58:07.072Z,24.65
2018-04-12T10:59:07.086Z,24.25
2018-04-12T11:00:07.097Z,23.77
2018-04-12T11:01:07.111Z,23.59
2018-04-12T11:02:07.121Z,23.42
2018-04-12T11:03:07.133Z,23.11
2018-04-12T11:04:07.146Z,23.18
2018-04-12T11:05:07.156Z,23.13
2018-04-12T11:06:07.166Z,23.16
2018-04-12T11:07:07.283Z,23.07
2018-04-12T11:08:07.189Z,23.11
2018-04-12T11:09:07.198Z,23.18
2018-04-12T11:10:07.207Z,23.49
2018-04-12T11:11:07.222Z,23.76
2018-04-12T11:12:07.230Z,23.91
2018-04-12T11:13:07.239Z,23.94
2018-04-12T11:14:07.277Z,23.88
2018-04-12T11:15:07.346Z,23.69
2018-04-12T11:16:07.270Z,23.70
2018-04-12T11:17:07.279Z,23.84
2018-04-12T11:18:07.289Z,23.85
2018-04-12T11:19:07.299Z,24.01
2018-04-12T11:20:07.311Z,24.32
2018-04-12T11:21:07.344Z,24.63
2018-04-12T11:22:07.331Z,24.68
2018-04-12T11:23:07.420Z,24.46
2018-04-12T11:24:07.594Z,24.53
2018-04-12T11:25:07.364Z,24.32
2018-04-12T11:26:07.374Z,24.28
2018-04-12T11:27:07.392Z,24.10
2018-04-12T11:28:07.397Z,23.92
2018-04-12T11:29:07.408Z,23.59
2018-04-12T11:30:07.427Z,22.99
2018-04-12T11:31:07.430Z,22.77
2018-04-12T11:32:07.440Z,22.84
2018-04-12T11:33:07.465Z,22.81
2018-04-12T11:34:07.474Z,22.83
2018-04-12T11:35:07.496Z,22.78
2018-04-12T11:36:07.504Z,22.80
2018-04-12T11:37:07.770Z,22.78
2018-04-12T11:38:07.661Z,22.83
2018-04-12T11:39:07.509Z,22.81
2018-04-12T11:40:07.602Z,22.80
2018-04-12T11:41:07.555Z,22.76
2018-04-12T11:42:07.536Z,22.81
2018-04-12T11:43:07.547Z,22.92
2018-04-12T11:44:07.556Z,23.32
2018-04-12T11:45:07.589Z,23.42
2018-04-12T11:46:07.574Z,23.13
2018-04-12T11:47:07.585Z,22.93
2018-04-12T11:48:07.594Z,22.80
2018-04-12T11:49:07.610Z,22.63
2018-04-12T11:50:07.612Z,22.38
2018-04-12T11:51:07.626Z,22.36
2018-04-12T11:52:07.631Z,22.53
2018-04-12T11:53:07.643Z,22.78
2018-04-12T11:54:07.651Z,22.99
2018-04-12T11:55:07.666Z,23.23
2018-04-12T11:56:07.696Z,23.45
2018-04-12T11:57:07.677Z,23.67
2018-04-12T11:58:07.687Z,23.64
2018-04-12T11:59:07.766Z,23.76
2018-04-12T12:00:07.707Z,23.82
2018-04-12T12:01:07.716Z,23.94
2018-04-12T12:02:07.724Z,23.74
2018-04-12T12:03:07.736Z,23.48
2018-04-12T12:04:07.744Z,23.58
2018-04-12T12:05:08.071Z,23.64
2018-04-12T12:06:07.779Z,23.51
2018-04-12T12:07:07.778Z,23.52
2018-04-12T12:08:07.785Z,23.48
2018-04-12T12:09:07.796Z,23.69
2018-04-12T12:10:07.807Z,23.91
2018-04-12T12:11:07.817Z,24.26
2018-04-12T12:12:07.825Z,24.06
2018-04-12T12:13:07.836Z,23.71
2018-04-12T12:14:07.844Z,23.58
2018-04-12T12:15:07.855Z,23.26
2018-04-12T12:16:07.865Z,23.17
2018-04-12T12:17:07.875Z,23.21
2018-04-12T12:18:08.102Z,23.28
2018-04-12T12:19:07.894Z,23.16
2018-04-12T12:20:08.135Z,23.16
2018-04-12T12:21:07.913Z,23.14
2018-04-12T12:22:07.922Z,23.42
2018-04-12T12:23:07.930Z,23.74
2018-04-12T12:24:08.440Z,23.73
2018-04-12T12:25:08.214Z,23.76
2018-04-12T12:26:08.137Z,23.88
2018-04-12T12:27:07.970Z,23.89
2018-04-12T12:28:07.980Z,24.01
2018-04-12T12:29:07.990Z,23.91
2018-04-12T12:30:07.999Z,23.66
2018-04-12T12:31:08.011Z,23.13
2018-04-12T12:32:08.019Z,22.88
2018-04-12T12:33:08.030Z,22.84
2018-04-12T12:34:08.037Z,22.74
2018-04-12T12:35:08.266Z,22.36
2018-04-12T12:36:08.057Z,22.03
2018-04-12T12:37:08.150Z,22.07
2018-04-12T12:38:08.075Z,22.01
2018-04-12T12:39:08.084Z,22.16
2018-04-12T12:40:08.093Z,21.96
2018-04-12T12:41:08.103Z,21.69
2018-04-12T12:42:08.111Z,21.40
2018-04-12T12:43:08.119Z,21.11
2018-04-12T12:44:08.128Z,21.17
2018-04-12T12:45:08.135Z,21.03
2018-04-12T12:46:08.142Z,21.11
2018-04-12T12:47:08.151Z,21.10
2018-04-12T12:48:08.160Z,21.05
2018-04-12T12:49:08.167Z,20.83
2018-04-12T12:50:08.173Z,20.93
2018-04-12T12:51:08.181Z,20.96
2018-04-12T12:52:08.190Z,21.05
2018-04-12T12:53:08.197Z,21.15
2018-04-12T12:54:08.204Z,21.13
2018-04-12T12:55:08.212Z,20.98